Dayton, OH (45439)

11:58 AM EST on February 09, 2016 (GMT -0500)
South Dayton Suburbs | | Change Station
CLOSE
Current Station
Personal Weather Station
Location: Moraine, OH
Elevation: 751 ft
Nearby Weather Stations

Elev 751 ft 39.69 °N, 84.21 °W | Updated 2 seconds ago

Overcast
Overcast
24.0 °F
Feels Like 24 °F
N
2.0
Wind Variable Wind from WNW
Gusts 10.0 mph

Today
High -- | Low -- °F
--% Chance of Precip.
Yesterday
High -- | Low -- °F
Precip. -- in
Pressure 29.76 in
Visibility 2.5 miles
Clouds Mostly Cloudy 1400 ft
Overcast 3400 ft
Windchill 24 °F
Dew Point 18 °F
Humidity 78%
Rainfall 0.00 in
Snow Depth Not available.
7:37 AM 6:05 PM
New Moon, 2% visible
METAR KMGY 091653Z AUTO 25011G18KT 2 1/2SM -SN BKN014 OVC034 M05/M08 A2972 RMK AO2 SNB50 SLP076 P0000 T10501083
Pressure 29.76 in
Visibility 2.5 miles
Clouds Mostly Cloudy 1400 ft
Overcast 3400 ft
Windchill 24 °F
Dew Point 18 °F
Humidity 78%
Rainfall 0.00 in
Snow Depth Not available.
7:37 AM 6:05 PM
New Moon, 2% visible
METAR KMGY 091653Z AUTO 25011G18KT 2 1/2SM -SN BKN014 OVC034 M05/M08 A2972 RMK AO2 SNB50 SLP076 P0000 T10501083

10-Day Weather Forecast

Almanac

Astronomy

Feb. 09, 2016 Rise Set
Actual Time
Civil Twilight
Nautical Twilight
Astronomical Twilight
Moon
Length of Visible Light
Length of Day
Tomorrow will be .
, % of the Moon is Illuminated

Today's Extremes

State Highs State Lows

Community

WunderPhotos

Upload Photos

1,891,631 photos uploaded!

WunderBlog® & News

Nearby

Air Quality

  Air Quality AQ Index Pollutant
Not available.

Snow Depth

Station Depth Elevation

Earthquake Activity

City Distance Mag. Time & Date
Minimum magnitude displayed is 2.5.

Coastal Water Temperatures

Place Temperature

Stations

Nearby Weather Stations

Station Location Temp. Windchill Dew Point Humidity Wind Precip. Elev Updated Type
                   

Watches & Warnings

Winter Weather Advisory
Issued: 10:10 AM EST Feb. 9, 2016 – National Weather Service

... Winter Weather Advisory remains in effect until 6 am EST
Wednesday...

* hazard types... snow.

* Accumulations... total snow accumulations of 1 to 4 inches.

* Timing... snow will transition to snow showers this afternoon and
will continue into tonight. Another inch or two possible will be
possible during this period from snow showers.

* Impacts... travel difficulties are expected due to reduced
visibilities and snow accumulations.

Precautionary/preparedness actions...

Remember... a Winter Weather Advisory for snow means that periods
of snow will cause primarily travel difficulties. Be prepared for
snow covered roads and limited visibilities... and use caution
while driving. Stay tuned to NOAA Weather Radio or your favorite
source of information for the latest updates. Additional details
can also be found at www.Weather.Gov/iln as well as on our
facebook and twitter pages.